Time;durP1;ratioP1;P1;durP2;ratioP2;P2;SDS_P1;SDS_P2;PMS_P1;PMS_P2;Temp;Humidity;BMP_temperature;BMP_pressure;BME280_temperature;BME280_humidity;BME280_pressure;Samples;Min_cycle;Max_cycle;Signal;HPM_P1;HPM_P2
2023/07/10 00:01:04;;;;;;;5.50;5.05;;;20.80;99.90;;;;;;5050464;28;20810;-80
2023/07/10 00:03:31;;;;;;;6.07;5.38;;;20.80;1.00;;;;;;5068153;28;20181;-79
2023/07/10 00:05:59;;;;;;;7.05;5.03;;;20.70;99.90;;;;;;5049889;28;20212;-79
2023/07/10 00:08:26;;;;;;;7.00;4.90;;;21.70;99.90;;;;;;5067683;28;20196;-80
2023/07/10 00:10:52;;;;;;;6.72;5.78;;;20.80;1.00;;;;;;5048643;28;20271;-80
2023/07/10 00:13:21;;;;;;;7.43;5.35;;;20.80;1.00;;;;;;5067592;28;20311;-80
2023/07/10 00:15:52;;;;;;;6.55;5.63;;;20.80;99.90;;;;;;5049229;28;20205;-80
2023/07/10 00:18:21;;;;;;;6.05;5.43;;;21.00;1.00;;;;;;5049016;28;20209;-80
2023/07/10 00:20:47;;;;;;;6.97;5.40;;;20.80;99.90;;;;;;5048638;28;20261;-80
2023/07/10 00:23:14;;;;;;;6.03;5.43;;;20.70;99.90;;;;;;5067086;28;20303;-80
2023/07/10 00:25:41;;;;;;;6.57;5.63;;;20.70;99.90;;;;;;5066837;28;20221;-80
2023/07/10 00:28:18;;;;;;;9.95;4.90;;;20.60;99.90;;;;;;5066851;28;20220;-80
2023/07/10 00:30:45;;;;;;;6.38;5.78;;;20.60;1.00;;;;;;5066330;28;21105;-79
2023/07/10 00:33:12;;;;;;;6.28;5.68;;;20.70;99.90;;;;;;5048751;28;20182;-80
2023/07/10 00:35:38;;;;;;;6.03;5.43;;;20.80;1.00;;;;;;5065487;28;20198;-80
2023/07/10 00:38:18;;;;;;;6.10;5.50;;;20.50;1.00;;;;;;5066427;28;20300;-80
2023/07/10 00:40:46;;;;;;;6.93;5.70;;;20.90;1.00;;;;;;5065733;28;20261;-80
2023/07/10 00:43:14;;;;;;;5.97;5.20;;;20.50;99.90;;;;;;5066800;28;20176;-80
2023/07/10 00:45:40;;;;;;;5.75;5.25;;;;;;;;;;5066587;28;20220;-80
2023/07/10 00:48:30;;;;;;;5.72;5.15;;;20.90;1.00;;;;;;5048590;28;20645;-80
2023/07/10 00:50:59;;;;;;;6.20;5.70;;;20.60;99.90;;;;;;5065987;28;20234;-80
2023/07/10 00:53:31;;;;;;;5.95;5.15;;;20.60;1.00;;;;;;5048463;28;20185;-80
2023/07/10 00:56:02;;;;;;;6.50;5.28;;;20.70;1.00;;;;;;5048369;28;20299;-80
2023/07/10 00:58:34;;;;;;;5.35;4.82;;;20.50;1.00;;;;;;5066363;28;20209;-80
2023/07/10 01:01:08;;;;;;;7.10;5.63;;;20.60;1.00;;;;;;5065612;28;20268;-80
2023/07/10 01:03:35;;;;;;;7.07;5.47;;;20.50;99.90;;;;;;5048300;28;20545;-80
2023/07/10 01:06:24;;;;;;;6.00;5.40;;;20.50;19.40;;;;;;5066040;28;20538;-80
2023/07/10 01:08:57;;;;;;;6.07;5.45;;;20.60;99.90;;;;;;5046397;28;20519;-80
2023/07/10 01:11:23;;;;;;;5.97;5.15;;;20.60;99.90;;;;;;5065296;28;20181;-80
2023/07/10 01:13:51;;;;;;;6.80;5.70;;;20.80;1.00;;;;;;5065803;28;20671;-80
2023/07/10 01:16:18;;;;;;;7.93;5.20;;;;;;;;;;5065478;28;20207;-80
2023/07/10 01:18:45;;;;;;;6.22;5.35;;;20.50;1.00;;;;;;5065403;28;20569;-79
2023/07/10 01:21:27;;;;;;;6.25;5.45;;;20.60;1.00;;;;;;5065782;28;20660;-80
2023/07/10 01:23:54;;;;;;;6.18;5.50;;;20.30;99.90;;;;;;5065492;28;20669;-80
2023/07/10 01:26:20;;;;;;;7.47;5.82;;;20.50;99.90;;;;;;5065504;28;20299;-80
2023/07/10 01:28:46;;;;;;;5.95;5.25;;;20.10;1.00;;;;;;5047263;28;20178;-79
2023/07/10 01:31:16;;;;;;;6.95;5.53;;;20.30;99.90;;;;;;5065707;28;20628;-80
2023/07/10 01:33:55;;;;;;;6.05;5.28;;;20.50;1.00;;;;;;5065450;28;20706;-80
2023/07/10 01:36:23;;;;;;;5.60;5.10;;;20.50;1.00;;;;;;5065172;28;20679;-80
2023/07/10 01:39:18;;;;;;;5.25;4.75;;;20.10;1.00;;;;;;5064704;28;20182;-80
2023/07/10 01:41:46;;;;;;;5.65;5.03;;;20.30;99.90;;;;;;5054285;28;20238;-80
2023/07/10 01:44:32;;;;;;;6.28;5.05;;;20.10;1.00;;;;;;5065535;28;20187;-80
2023/07/10 01:46:59;;;;;;;7.35;5.70;;;19.70;99.90;;;;;;5046862;28;20282;-80
2023/07/10 01:49:28;;;;;;;5.68;5.18;;;19.50;1.00;;;;;;5064577;28;20255;-80
2023/07/10 01:51:56;;;;;;;6.15;5.07;;;19.50;1.00;;;;;;5065082;28;20197;-80
2023/07/10 01:54:22;;;;;;;7.47;5.97;;;;;;;;;;5065471;28;20188;-80
2023/07/10 01:56:48;;;;;;;5.65;5.15;;;;;;;;;;5064743;28;20218;-80
2023/07/10 01:59:14;;;;;;;6.55;5.53;;;19.40;1.00;;;;;;5056100;28;20227;-80
2023/07/10 02:01:40;;;;;;;6.28;5.25;;;;;;;;;;5046932;28;20548;-80
2023/07/10 02:04:06;;;;;;;7.63;5.32;;;19.80;99.90;;;;;;5064650;28;20178;-80
2023/07/10 02:06:34;;;;;;;7.72;5.72;;;19.90;99.90;;;;;;5047027;28;20676;-80
2023/07/10 02:09:00;;;;;;;6.50;5.90;;;;;;;;;;5064388;28;20672;-80
2023/07/10 02:11:26;;;;;;;7.32;6.60;;;;;;;;;;5053526;28;20185;-80
2023/07/10 02:13:52;;;;;;;6.72;5.72;;;19.90;99.90;;;;;;5064784;28;20231;-80
2023/07/10 02:16:18;;;;;;;8.95;5.82;;;19.80;99.90;;;;;;5064441;28;20566;-80
2023/07/10 02:18:44;;;;;;;8.05;6.47;;;;;;;;;;5064916;28;20190;-80
2023/07/10 02:21:10;;;;;;;8.75;6.80;;;20.40;99.90;;;;;;5064377;28;20188;-80
2023/07/10 02:23:38;;;;;;;7.10;6.10;;;20.20;99.90;;;;;;5064811;28;20246;-80
2023/07/10 02:26:04;;;;;;;6.45;5.80;;;20.30;1.00;;;;;;5064492;28;20213;-80
2023/07/10 02:28:30;;;;;;;8.52;6.45;;;;;;;;;;5064835;28;20185;-80
2023/07/10 02:30:56;;;;;;;7.65;6.85;;;20.70;1.00;;;;;;5046145;28;20181;-80
2023/07/10 02:33:22;;;;;;;8.45;6.63;;;;;;;;;;5046695;28;20523;-81
2023/07/10 02:35:48;;;;;;;8.32;6.80;;;;;;;;;;5064608;28;20279;-80
2023/07/10 02:38:15;;;;;;;8.90;7.13;;;20.70;60.30;;;;;;5064464;28;20652;-81
2023/07/10 02:40:43;;;;;;;8.18;6.32;;;20.30;99.90;;;;;;5045932;28;20204;-81
2023/07/10 02:43:09;;;;;;;11.63;6.75;;;;;;;;;;5064014;28;20193;-80
2023/07/10 02:45:36;;;;;;;9.70;6.50;;;20.40;99.90;;;;;;5064302;28;20208;-79
2023/07/10 02:48:02;;;;;;;8.38;6.63;;;20.20;1.00;;;;;;5063886;28;20235;-79
2023/07/10 02:50:28;;;;;;;7.43;6.40;;;;;;;;;;5063849;28;20177;-79
2023/07/10 02:52:54;;;;;;;8.25;6.63;;;;;;;;;;5064123;28;20239;-80
2023/07/10 02:55:20;;;;;;;7.47;6.60;;;;;;;;;;5064423;28;20659;-79
2023/07/10 02:57:46;;;;;;;8.18;5.68;;;;;;;;;;5051803;28;20193;-80
2023/07/10 03:00:12;;;;;;;8.25;5.82;;;;;;;;;;5063811;28;20182;-79
2023/07/10 03:02:38;;;;;;;12.20;6.50;;;;;;;;;;5064267;28;20177;-80
2023/07/10 03:05:04;;;;;;;7.95;6.60;;;20.70;1.00;;;;;;5063935;28;20189;-80
2023/07/10 03:07:31;;;;;;;10.13;6.82;;;20.30;99.90;;;;;;5064340;28;20189;-80
2023/07/10 03:09:57;;;;;;;8.32;6.97;;;;;;;;;;5051845;28;20664;-79
2023/07/10 03:12:23;;;;;;;10.73;7.80;;;;;;;;;;5064081;28;20323;-79
2023/07/10 03:14:49;;;;;;;9.23;7.20;;;20.30;99.90;;;;;;5064089;28;20181;-79
2023/07/10 03:17:15;;;;;;;7.32;6.63;;;20.30;55.90;;;;;;5064392;28;20205;-80
2023/07/10 03:19:41;;;;;;;7.60;6.90;;;;;;;;;;5064678;28;20177;-80
2023/07/10 03:22:07;;;;;;;9.55;7.03;;;19.60;1.00;;;;;;5064583;28;20648;-80
2023/07/10 03:24:32;;;;;;;8.07;7.28;;;19.70;1.00;;;;;;5046886;28;20197;-80
2023/07/10 03:26:58;;;;;;;7.93;7.10;;;;;;;;;;5064210;28;20288;-79
2023/07/10 03:29:25;;;;;;;8.32;6.90;;;;;;;;;;5063934;28;20193;-81
2023/07/10 03:31:51;;;;;;;9.35;7.72;;;;;;;;;;5064550;28;20182;-80
2023/07/10 03:34:17;;;;;;;8.43;7.28;;;19.80;99.90;;;;;;5066753;28;20204;-80
2023/07/10 03:36:43;;;;;;;8.00;7.18;;;;;;;;;;5067587;28;20205;-80
2023/07/10 03:39:09;;;;;;;8.40;7.40;;;19.90;99.90;;;;;;5067539;28;20184;-80
2023/07/10 03:41:36;;;;;;;9.93;7.28;;;;;;;;;;5049950;28;20178;-80
2023/07/10 03:44:02;;;;;;;8.23;6.22;;;;;;;;;;5066107;28;20664;-81
2023/07/10 03:46:28;;;;;;;7.95;7.05;;;;;;;;;;5066109;28;20201;-80
2023/07/10 03:48:54;;;;;;;8.80;6.88;;;;;;;;;;5067490;28;20204;-80
2023/07/10 03:51:20;;;;;;;11.32;6.95;;;;;;;;;;5049094;28;20546;-80
2023/07/10 03:53:47;;;;;;;10.77;6.80;;;20.10;1.00;;;;;;5067427;28;20185;-80
2023/07/10 03:56:13;;;;;;;9.52;7.40;;;;;;;;;;5049643;28;20599;-80
2023/07/10 03:58:42;;;;;;;8.23;7.40;;;20.20;99.90;;;;;;5067309;28;20629;-80
2023/07/10 04:01:08;;;;;;;7.45;6.70;;;;;;;;;;5037495;28;20627;-80
2023/07/10 04:03:35;;;;;;;8.32;6.72;;;20.40;1.00;;;;;;5067237;28;20255;-80
2023/07/10 04:06:02;;;;;;;7.35;6.55;;;;;;;;;;5066807;28;20205;-80
2023/07/10 04:08:35;;;;;;;8.27;7.25;;;20.50;99.90;;;;;;5056639;28;20182;-81
2023/07/10 04:11:16;;;;;;;11.20;6.38;;;20.70;99.90;;;;;;5066530;28;20196;-81
2023/07/10 04:13:43;;;;;;;10.95;7.28;;;;;;;;;;5050504;28;20189;-80
2023/07/10 04:16:14;;;;;;;10.00;6.80;;;20.30;99.90;;;;;;5050178;28;20201;-81
2023/07/10 04:18:41;;;;;;;10.70;6.82;;;20.40;1.00;;;;;;5069063;28;20218;-81
2023/07/10 04:21:11;;;;;;;8.75;6.25;;;20.60;99.90;;;;;;5068720;28;20256;-81
2023/07/10 04:23:38;;;;;;;7.20;6.28;;;;;;;;;;5068814;28;20238;-81
2023/07/10 04:26:03;;;;;;;9.93;7.50;;;;;;;;;;5068003;28;20580;-81
2023/07/10 04:28:29;;;;;;;7.32;6.63;;;;;;;;;;5055621;28;20185;-81
2023/07/10 04:30:55;;;;;;;10.23;6.43;;;;;;;;;;5048300;28;20190;-81
2023/07/10 04:33:22;;;;;;;7.45;6.25;;;;;;;;;;5066604;28;20220;-81
2023/07/10 04:35:56;;;;;;;8.50;6.60;;;20.20;99.90;;;;;;5049048;28;20205;-81
2023/07/10 04:38:28;;;;;;;8.77;7.03;;;21.00;99.90;;;;;;5048291;28;20197;-81
2023/07/10 04:40:58;;;;;;;8.25;7.40;;;20.70;99.90;;;;;;5066616;28;20177;-81
2023/07/10 04:43:25;;;;;;;8.68;7.00;;;20.80;99.90;;;;;;5048363;28;20185;-80
2023/07/10 04:45:56;;;;;;;7.28;6.22;;;20.80;99.90;;;;;;5066217;28;20205;-81
2023/07/10 04:48:23;;;;;;;10.70;7.10;;;20.80;99.90;;;;;;5066367;28;20284;-81
2023/07/10 04:50:50;;;;;;;8.98;6.75;;;20.90;99.90;;;;;;5047618;28;20245;-81
2023/07/10 04:53:16;;;;;;;9.00;6.70;;;20.90;1.00;;;;;;5066422;28;20203;-81
2023/07/10 04:55:43;;;;;;;9.75;6.65;;;;;;;;;;5066335;28;20201;-81
2023/07/10 04:58:09;;;;;;;8.02;6.15;;;;;;;;;;5066298;28;20217;-81
2023/07/10 05:00:35;;;;;;;10.50;6.00;;;20.60;1.00;;;;;;5065645;28;20182;-81
2023/07/10 05:03:01;;;;;;;7.30;6.55;;;20.90;68.80;;;;;;5047897;28;20642;-81
2023/07/10 05:05:27;;;;;;;7.95;6.82;;;;;;;;;;5065724;28;20288;-81
2023/07/10 05:07:53;;;;;;;7.90;6.57;;;;;;;;;;5066117;28;20269;-81
2023/07/10 05:10:19;;;;;;;9.68;7.32;;;;;;;;;;5065819;28;20192;-81
2023/07/10 05:12:45;;;;;;;8.30;6.20;;;;;;;;;;5066117;28;20656;-81
2023/07/10 05:15:11;;;;;;;8.60;6.25;;;21.20;1.00;;;;;;5065990;28;20644;-81
2023/07/10 05:17:37;;;;;;;6.90;6.00;;;;;;;;;;5065964;28;20231;-81
2023/07/10 05:20:04;;;;;;;8.88;5.70;;;;;;;;;;5065082;28;20213;-81
2023/07/10 05:22:29;;;;;;;8.02;5.75;;;;;;;;;;5062988;28;20268;-81
2023/07/10 05:24:55;;;;;;;9.85;6.30;;;22.70;1.00;;;;;;5064971;28;20273;-81
2023/07/10 05:27:21;;;;;;;9.57;6.47;;;;;;;;;;5047813;28;20291;-82
2023/07/10 05:29:47;;;;;;;8.20;5.45;;;;;;;;;;5063429;28;20641;-81
2023/07/10 05:32:13;;;;;;;6.22;5.10;;;25.30;99.90;;;;;;5058709;28;20604;-82
2023/07/10 05:34:38;;;;;;;7.93;5.30;;;25.60;1.00;;;;;;5065571;28;20193;-83
2023/07/10 05:37:04;;;;;;;7.55;4.97;;;28.10;99.90;;;;;;5065633;28;20209;-83
2023/07/10 05:39:30;;;;;;;6.68;4.90;;;28.40;99.90;;;;;;5047180;28;20788;-82
2023/07/10 05:41:57;;;;;;;6.20;5.53;;;28.70;99.90;;;;;;5047593;28;20193;-83
2023/07/10 05:44:23;;;;;;;5.95;4.95;;;;;;;;;;5065102;28;20186;-82
2023/07/10 05:46:51;;;;;;;6.88;4.90;;;28.90;99.90;;;;;;5065371;28;20216;-82
2023/07/10 05:49:17;;;;;;;6.25;4.80;;;;;;;;;;5044634;28;20661;-82
2023/07/10 05:51:43;;;;;;;7.15;4.65;;;;;;;;;;5061034;28;20182;-82
2023/07/10 05:54:08;;;;;;;11.82;4.63;;;28.50;99.90;;;;;;5065244;28;20188;-82
2023/07/10 05:56:34;;;;;;;5.10;4.05;;;28.50;99.90;;;;;;5046826;28;20209;-82
2023/07/10 05:59:01;;;;;;;6.95;4.53;;;28.70;99.90;;;;;;5046997;28;20555;-82
2023/07/10 06:01:27;;;;;;;6.38;4.68;;;28.60;99.90;;;;;;5046715;28;20183;-82
2023/07/10 06:03:52;;;;;;;7.43;4.57;;;29.10;99.90;;;;;;5065619;28;20181;-82
2023/07/10 06:06:18;;;;;;;5.88;5.00;;;29.20;99.90;;;;;;5049046;28;20193;-81
2023/07/10 06:08:44;;;;;;;6.05;4.20;;;;;;;;;;5066955;28;20192;-82
2023/07/10 06:11:10;;;;;;;8.82;4.60;;;;;;;;;;5063133;28;20181;-82
2023/07/10 06:13:37;;;;;;;5.90;4.60;;;;;;;;;;5050586;28;20235;-81
2023/07/10 06:16:06;;;;;;;7.22;4.68;;;29.00;99.90;;;;;;5063153;28;20209;-81
2023/07/10 06:18:33;;;;;;;6.53;4.55;;;;;;;;;;5056166;28;20212;-82
2023/07/10 06:20:59;;;;;;;6.90;4.43;;;29.20;99.90;;;;;;5057359;28;20652;-82
2023/07/10 06:23:27;;;;;;;7.90;5.15;;;29.20;99.90;;;;;;5044323;28;20273;-81
2023/07/10 06:25:53;;;;;;;6.30;4.63;;;29.10;99.90;;;;;;5044797;28;20275;-82
2023/07/10 06:28:20;;;;;;;6.97;4.53;;;29.00;99.90;;;;;;5064755;28;20301;-82
2023/07/10 06:30:54;;;;;;;6.85;5.20;;;26.70;90.70;;;;;;5041446;28;20189;-82
2023/07/10 06:33:20;;;;;;;6.38;4.68;;;;;;;;;;5062675;28;20725;-80
2023/07/10 06:35:46;;;;;;;9.98;5.53;;;25.00;99.90;;;;;;5064903;28;20217;-81
2023/07/10 06:38:12;;;;;;;7.00;6.07;;;;;;;;;;5063219;28;20209;-80
2023/07/10 06:40:37;;;;;;;8.15;6.95;;;24.00;1.00;;;;;;5046149;28;20181;-82
2023/07/10 06:43:03;;;;;;;8.27;7.45;;;23.30;99.90;;;;;;5046805;28;20221;-81
2023/07/10 06:45:29;;;;;;;8.25;7.45;;;;;;;;;;5048123;28;20247;-82
2023/07/10 06:47:55;;;;;;;8.60;7.30;;;;;;;;;;5047490;28;20209;-82
2023/07/10 06:50:21;;;;;;;8.30;7.50;;;;;;;;;;5055130;28;20550;-83
2023/07/10 06:52:46;;;;;;;10.25;7.40;;;22.70;99.90;;;;;;5064867;28;20181;-80
2023/07/10 06:55:15;;;;;;;9.60;7.63;;;23.00;99.90;;;;;;5064605;28;20184;-80
2023/07/10 06:57:41;;;;;;;10.48;7.93;;;;;;;;;;5064361;28;20201;-82
2023/07/10 07:00:09;;;;;;;8.25;7.47;;;22.90;49.50;;;;;;5064204;28;20530;-81
2023/07/10 07:02:36;;;;;;;8.60;7.43;;;22.80;1.00;;;;;;5065370;28;20174;-78
2023/07/10 07:05:03;;;;;;;8.25;7.45;;;23.00;99.90;;;;;;5061309;28;20213;-78
2023/07/10 07:07:28;;;;;;;8.65;7.72;;;22.80;99.90;;;;;;5063946;28;20178;-79
2023/07/10 07:09:54;;;;;;;9.50;8.07;;;;;;;;;;5067068;28;20197;-79
2023/07/10 07:12:21;;;;;;;12.55;7.88;;;;;;;;;;5059100;28;20181;-80
2023/07/10 07:14:46;;;;;;;9.52;8.52;;;;;;;;;;5050324;28;20213;-79
2023/07/10 07:17:14;;;;;;;8.75;7.85;;;;;;;;;;5066726;28;20251;-80
2023/07/10 07:19:40;;;;;;;8.40;7.60;;;;;;;;;;5051390;28;20172;-79
2023/07/10 07:22:06;;;;;;;8.50;7.60;;;;;;;;;;5065836;28;20541;-79
2023/07/10 07:24:32;;;;;;;8.32;7.53;;;;;;;;;;5065350;28;20637;-78
2023/07/10 07:26:59;;;;;;;10.00;7.55;;;;;;;;;;5067230;28;20219;-79
2023/07/10 07:29:27;;;;;;;8.90;7.93;;;22.30;99.90;;;;;;5049428;28;20216;-79
2023/07/10 07:31:53;;;;;;;9.48;7.90;;;;;;;;;;5069919;28;20178;-78
2023/07/10 07:34:18;;;;;;;9.43;7.90;;;22.80;99.90;;;;;;5069722;28;20170;-77
2023/07/10 07:36:44;;;;;;;8.10;7.30;;;;;;;;;;5070066;28;20202;-78
2023/07/10 07:39:10;;;;;;;8.43;7.63;;;22.50;99.90;;;;;;5069295;28;20189;-80
2023/07/10 07:41:36;;;;;;;8.32;7.43;;;22.40;99.90;;;;;;5069542;28;20173;-79
2023/07/10 07:44:02;;;;;;;7.80;7.00;;;22.40;20.90;;;;;;5069823;28;20188;-79
2023/07/10 07:46:29;;;;;;;11.10;7.88;;;22.80;99.90;;;;;;5068538;28;20462;-79
2023/07/10 07:48:55;;;;;;;9.02;8.10;;;;;;;;;;5067926;28;20185;-78
2023/07/10 07:51:21;;;;;;;8.88;8.18;;;;;;;;;;5067718;28;20182;-78
2023/07/10 07:53:47;;;;;;;8.98;8.20;;;;;;;;;;5068228;28;20680;-79
2023/07/10 07:56:13;;;;;;;9.27;8.38;;;22.60;90.30;;;;;;5068385;28;20214;-80
2023/07/10 07:58:38;;;;;;;9.88;8.77;;;23.00;50.00;;;;;;5069201;28;20259;-81
2023/07/10 08:01:04;;;;;;;8.93;8.05;;;23.00;18.90;;;;;;5058763;28;20185;-79
2023/07/10 08:03:33;;;;;;;8.70;7.90;;;23.70;99.90;;;;;;5068847;28;20593;-80
2023/07/10 08:05:58;;;;;;;9.90;8.70;;;23.70;1.00;;;;;;5050850;28;21295;-79
2023/07/10 08:08:24;;;;;;;9.88;8.90;;;;;;;;;;5069046;28;20181;-80
2023/07/10 08:10:50;;;;;;;10.18;9.10;;;;;;;;;;5050229;28;20197;-76
2023/07/10 08:13:18;;;;;;;8.77;7.97;;;23.60;99.90;;;;;;5060696;28;20176;-80
2023/07/10 08:15:44;;;;;;;9.10;8.30;;;23.60;1.00;;;;;;5068538;28;20201;-77
2023/07/10 08:18:10;;;;;;;9.02;8.13;;;;;;;;;;5068611;28;21168;-79
2023/07/10 08:20:36;;;;;;;7.65;6.95;;;24.40;1.00;;;;;;5068085;28;20690;-79
2023/07/10 08:23:03;;;;;;;8.07;6.97;;;23.90;5.20;;;;;;5068540;28;20209;-78
2023/07/10 08:25:29;;;;;;;7.38;6.68;;;23.90;86.90;;;;;;5068282;28;20213;-79
2023/07/10 08:27:57;;;;;;;7.88;7.18;;;24.10;90.50;;;;;;5060210;28;20182;-78
2023/07/10 08:30:23;;;;;;;6.85;6.18;;;23.50;1.00;;;;;;5067754;28;20649;-79
2023/07/10 08:32:49;;;;;;;7.20;6.60;;;;;;;;;;5068228;28;20206;-78
2023/07/10 08:35:15;;;;;;;6.50;5.90;;;23.60;1.00;;;;;;5048989;28;20197;-79
2023/07/10 08:37:41;;;;;;;7.25;6.65;;;;;;;;;;5049736;28;20246;-79
2023/07/10 08:40:16;;;;;;;7.05;6.45;;;23.00;1.00;;;;;;5058960;28;20666;-77
2023/07/10 08:42:42;;;;;;;7.30;6.65;;;;;;;;;;5068098;28;20177;-78
2023/07/10 08:45:16;;;;;;;8.02;7.20;;;23.40;2.90;;;;;;5050422;28;20166;-79
2023/07/10 08:47:50;;;;;;;6.97;6.28;;;23.40;99.90;;;;;;5067276;28;20234;-77
2023/07/10 08:50:30;;;;;;;6.35;5.75;;;23.10;33.40;;;;;;5057265;28;20178;-77
2023/07/10 08:53:16;;;;;;;7.85;6.63;;;22.50;45.00;;;;;;5065455;28;20185;-75
2023/07/10 08:56:02;;;;;;;8.43;6.13;;;22.70;99.90;;;;;;5065380;28;20272;-75
2023/07/10 08:58:33;;;;;;;6.75;6.20;;;22.40;1.00;;;;;;5048582;28;20627;-75
2023/07/10 09:04:25;;;;;;;7.38;6.70;;;22.00;1.00;;;;;;5055789;28;20664;-77
2023/07/10 09:07:00;;;;;;;8.45;7.40;;;22.10;1.00;;;;;;5065218;28;20219;-78
2023/07/10 09:09:26;;;;;;;8.00;7.30;;;;;;;;;;5045989;28;21227;-77
2023/07/10 09:11:52;;;;;;;8.18;7.45;;;21.70;1.00;;;;;;5062670;28;20653;-75
2023/07/10 09:14:40;;;;;;;8.68;7.88;;;21.70;1.00;;;;;;5064119;28;20178;-76
2023/07/10 09:17:56;;;;;;;8.98;7.80;;;21.50;99.90;;;;;;5064475;28;20212;-76
2023/07/10 09:20:24;;;;;;;7.90;7.20;;;21.80;1.00;;;;;;5020724;28;20221;-75
2023/07/10 09:23:14;;;;;;;8.65;7.85;;;21.90;1.00;;;;;;5065912;28;20260;-76
2023/07/10 09:25:40;;;;;;;8.38;7.07;;;;;;;;;;5064300;28;20278;-76
2023/07/10 09:28:06;;;;;;;7.75;7.05;;;22.00;99.90;;;;;;5065833;28;20186;-74
2023/07/10 09:31:03;;;;;;;8.23;7.43;;;22.10;99.90;;;;;;5046741;28;20192;-74
2023/07/10 09:33:49;;;;;;;8.73;7.93;;;21.70;1.00;;;;;;5047797;28;20192;-76
2023/07/10 09:36:19;;;;;;;10.25;8.00;;;22.00;1.00;;;;;;5065858;28;20212;-79
2023/07/10 09:38:47;;;;;;;8.65;7.88;;;22.30;1.00;;;;;;5066066;28;20210;-77
2023/07/10 09:41:25;;;;;;;8.73;7.93;;;21.90;99.90;;;;;;5065526;28;20227;-76
2023/07/10 09:44:04;;;;;;;7.90;7.10;;;22.80;99.90;;;;;;5064230;28;20296;-76
2023/07/10 09:46:32;;;;;;;8.15;7.32;;;22.80;99.90;;;;;;5064533;28;20287;-76
2023/07/10 09:49:00;;;;;;;7.32;6.63;;;22.30;99.90;;;;;;5064889;28;20195;-75
2023/07/10 09:51:27;;;;;;;7.45;6.50;;;22.50;99.90;;;;;;5047077;28;20196;-75
2023/07/10 09:54:02;;;;;;;7.68;6.97;;;22.20;99.90;;;;;;5047760;28;20653;-75
2023/07/10 09:56:35;;;;;;;8.50;7.72;;;22.00;99.90;;;;;;5051338;28;20204;-76
2023/07/10 09:59:17;;;;;;;8.57;7.78;;;21.90;1.00;;;;;;5064695;28;20215;-76
2023/07/10 10:01:47;;;;;;;9.23;8.32;;;21.80;99.90;;;;;;5064175;28;20282;-77
2023/07/10 10:04:13;;;;;;;9.60;8.65;;;;;;;;;;5064751;28;20199;-76
2023/07/10 10:06:41;;;;;;;9.13;8.25;;;22.30;99.90;;;;;;5063056;28;20635;-76
2023/07/10 10:09:23;;;;;;;7.93;7.15;;;22.00;9.70;;;;;;5063097;28;20186;-75
2023/07/10 10:11:52;;;;;;;8.80;8.00;;;22.40;99.90;;;;;;5063660;28;20281;-76
2023/07/10 10:14:34;;;;;;;7.93;7.22;;;21.90;99.90;;;;;;5064639;28;20174;-75
2023/07/10 10:17:06;;;;;;;8.07;7.38;;;21.60;99.90;;;;;;5064449;28;20216;-76
2023/07/10 10:19:41;;;;;;;7.53;6.55;;;21.70;99.90;;;;;;5064064;28;20300;-76
2023/07/10 10:22:15;;;;;;;7.78;7.00;;;22.20;99.90;;;;;;5064398;28;20186;-77
2023/07/10 10:24:41;;;;;;;7.25;6.53;;;22.10;99.90;;;;;;5038609;28;20649;-78
2023/07/10 10:27:25;;;;;;;7.03;6.40;;;22.50;99.90;;;;;;5064576;28;20214;-77
2023/07/10 10:30:13;;;;;;;7.22;6.57;;;22.30;99.90;;;;;;5064299;28;20208;-77
2023/07/10 10:32:53;;;;;;;6.70;6.10;;;22.60;1.00;;;;;;5064662;28;20257;-77
2023/07/10 10:35:47;;;;;;;6.60;6.10;;;22.30;99.90;;;;;;5064643;28;20251;-77
2023/07/10 10:38:20;;;;;;;7.35;6.70;;;22.20;99.90;;;;;;5064398;28;20201;-75
2023/07/10 10:41:13;;;;;;;9.57;7.10;;;22.60;99.90;;;;;;5063106;28;20247;-78
2023/07/10 10:43:58;;;;;;;7.88;7.07;;;22.30;99.90;;;;;;5064829;28;20185;-75
2023/07/10 10:46:52;;;;;;;7.38;6.68;;;22.40;99.90;;;;;;5064755;28;20634;-74
2023/07/10 10:49:49;;;;;;;8.27;7.43;;;22.10;99.90;;;;;;5020819;28;20192;-76
2023/07/10 10:52:24;;;;;;;8.73;7.18;;;22.10;99.90;;;;;;5059498;28;20193;-75
2023/07/10 10:55:00;;;;;;;74.55;22.00;;;22.80;99.90;;;;;;5064901;28;20268;-75
2023/07/10 10:57:46;;;;;;;51.80;14.52;;;22.70;95.40;;;;;;5064359;28;20205;-76
2023/07/10 11:00:17;;;;;;;46.22;13.82;;;23.60;59.30;;;;;;5061989;28;20169;-75
2023/07/10 11:03:26;;;;;;;26.17;11.05;;;23.90;47.20;;;;;;5062794;28;20193;-76
2023/07/10 11:05:55;;;;;;;317.38;79.25;;;24.70;99.90;;;;;;5062927;28;20410;-75
2023/07/10 11:08:36;;;;;;;115.78;34.30;;;24.20;99.90;;;;;;5064905;28;20990;-76
2023/07/10 11:11:23;;;;;;;145.15;40.85;;;23.60;1.00;;;;;;5046618;28;20245;-75
2023/07/10 11:13:50;;;;;;;15.85;9.43;;;;;;;;;;5064690;28;20185;-76
2023/07/10 11:16:15;;;;;;;40.30;15.93;;;23.30;41.50;;;;;;5065478;28;20202;-76
2023/07/10 11:18:41;;;;;;;42.40;16.52;;;23.10;99.90;;;;;;5065371;28;20213;-75
2023/07/10 11:21:07;;;;;;;60.38;24.02;;;;;;;;;;5064512;28;20173;-76
2023/07/10 11:23:42;;;;;;;18.30;10.48;;;22.90;99.90;;;;;;5047256;28;20625;-76
2023/07/10 11:26:22;;;;;;;16.58;10.73;;;22.90;96.30;;;;;;5046775;28;21142;-77
2023/07/10 11:28:49;;;;;;;20.05;10.93;;;22.80;99.90;;;;;;5064560;28;20728;-77
2023/07/10 11:31:23;;;;;;;28.75;12.93;;;23.30;99.90;;;;;;5040630;28;20196;-76
2023/07/10 11:33:59;;;;;;;16.40;8.77;;;23.90;99.90;;;;;;5045490;28;20184;-75
2023/07/10 11:36:24;;;;;;;11.05;7.88;;;24.70;1.00;;;;;;5063373;28;20296;-76
2023/07/10 11:39:05;;;;;;;8.63;5.78;;;24.30;99.90;;;;;;5063505;28;20285;-76
2023/07/10 11:41:36;;;;;;;6.70;5.97;;;24.60;99.90;;;;;;5062299;28;20181;-78
2023/07/10 11:44:22;;;;;;;6.57;5.38;;;24.50;1.00;;;;;;5063521;28;20173;-76
2023/07/10 11:46:55;;;;;;;6.30;5.38;;;24.30;99.90;;;;;;5053396;28;20197;-76
2023/07/10 11:49:21;;;;;;;7.70;5.53;;;;;;;;;;5064076;28;20247;-76
2023/07/10 11:55:25;;;;;;;6.28;5.20;;;24.40;99.90;;;;;;5053184;28;20181;-75
2023/07/10 11:58:21;;;;;;;6.45;5.55;;;24.50;1.00;;;;;;5048909;28;20205;-77
2023/07/10 12:00:48;;;;;;;6.28;5.40;;;;;;;;;;5066436;28;20178;-76
2023/07/10 12:03:13;;;;;;;7.18;5.30;;;24.40;1.00;;;;;;5068091;28;20217;-76
2023/07/10 12:05:40;;;;;;;5.45;5.03;;;24.90;1.00;;;;;;5067564;28;20221;-76
2023/07/10 12:08:12;;;;;;;5.32;4.78;;;25.10;1.00;;;;;;5059657;28;20182;-77
2023/07/10 12:10:46;;;;;;;6.45;4.80;;;25.10;1.00;;;;;;5065514;28;20539;-76
2023/07/10 12:13:27;;;;;;;4.80;4.40;;;25.00;1.00;;;;;;5066746;28;20181;-76
2023/07/10 12:15:55;;;;;;;5.15;4.65;;;25.60;1.00;;;;;;5048191;28;20201;-76
2023/07/10 12:18:39;;;;;;;5.63;4.20;;;25.20;98.80;;;;;;5067543;28;20590;-78
2023/07/10 12:21:18;;;;;;;5.55;4.20;;;24.90;99.90;;;;;;5039679;28;20182;-77
2023/07/10 12:23:54;;;;;;;4.32;3.90;;;25.20;99.90;;;;;;5066493;28;20178;-77
2023/07/10 12:26:20;;;;;;;4.10;3.70;;;;;;;;;;5067823;28;20250;-77
2023/07/10 12:28:46;;;;;;;4.45;3.97;;;;;;;;;;5067804;28;20181;-78
2023/07/10 12:31:14;;;;;;;3.80;3.45;;;26.00;1.00;;;;;;5067213;28;20186;-77
2023/07/10 12:33:51;;;;;;;4.07;3.58;;;26.30;99.90;;;;;;5066475;28;20196;-79
2023/07/10 12:36:31;;;;;;;5.65;3.78;;;26.10;1.00;;;;;;5067748;28;20227;-79
2023/07/10 12:39:01;;;;;;;3.60;3.30;;;26.10;99.90;;;;;;5067517;28;20213;-75
2023/07/10 12:41:51;;;;;;;4.10;3.70;;;26.30;99.90;;;;;;5067161;28;20193;-77
2023/07/10 12:44:26;;;;;;;4.60;3.65;;;26.60;99.90;;;;;;5068150;28;20205;-78
2023/07/10 12:47:04;;;;;;;5.53;3.95;;;26.70;49.30;;;;;;5067500;28;20201;-77
2023/07/10 12:49:31;;;;;;;3.47;3.17;;;26.70;34.90;;;;;;5064432;28;20243;-79
2023/07/10 12:51:59;;;;;;;3.80;3.42;;;26.10;99.90;;;;;;5066006;28;20185;-79
2023/07/10 12:54:30;;;;;;;6.68;3.58;;;26.50;1.00;;;;;;5050049;28;20188;-77
2023/07/10 12:56:57;;;;;;;4.03;3.03;;;;;;;;;;5067480;28;20247;-77
2023/07/10 12:59:34;;;;;;;5.53;3.83;;;26.30;24.40;;;;;;5066858;28;20186;-77
2023/07/10 13:02:15;;;;;;;4.72;3.78;;;26.40;1.00;;;;;;5041141;28;20547;-76
2023/07/10 13:04:47;;;;;;;5.70;4.00;;;25.60;1.00;;;;;;5066172;28;21260;-77
2023/07/10 13:07:16;;;;;;;4.35;3.42;;;25.60;1.00;;;;;;5065132;28;20219;-76
2023/07/10 13:09:54;;;;;;;3.78;2.75;;;25.90;99.90;;;;;;5065258;28;20185;-76
2023/07/10 13:12:32;;;;;;;3.78;3.10;;;26.00;99.90;;;;;;5064604;28;21062;-76
2023/07/10 13:15:00;;;;;;;4.30;2.63;;;26.30;1.00;;;;;;5063324;28;20188;-75
2023/07/10 13:17:30;;;;;;;3.17;2.88;;;26.40;99.90;;;;;;5064128;28;20240;-76
2023/07/10 13:19:56;;;;;;;3.03;2.70;;;26.00;99.90;;;;;;5063378;28;20180;-75
2023/07/10 13:22:22;;;;;;;3.72;2.55;;;;;;;;;;5060426;28;20184;-75
2023/07/10 13:24:49;;;;;;;3.30;2.63;;;;;;;;;;5064050;28;20197;-76
2023/07/10 13:27:19;;;;;;;2.67;2.47;;;25.30;99.90;;;;;;5063636;28;20208;-75
2023/07/10 13:29:45;;;;;;;2.33;2.13;;;;;;;;;;5047150;28;20186;-76
2023/07/10 13:32:11;;;;;;;3.95;2.40;;;25.30;1.00;;;;;;5046825;28;20185;-76
2023/07/10 13:34:38;;;;;;;3.08;2.38;;;25.30;1.00;;;;;;5065359;28;20185;-75
2023/07/10 13:37:21;;;;;;;4.47;2.58;;;25.50;99.90;;;;;;5065085;28;20282;-75
2023/07/10 13:39:48;;;;;;;3.22;2.00;;;25.50;99.90;;;;;;5067034;28;20612;-75